首页
METAR-TAF:

METAR-TAF

机场 :

费尔班克斯国际机场

費爾班克斯, 阿拉斯加州, 美国

纬度: 64-48-14N, 经度: 147-52-34W, 海拔: 132米

当前天气观测

该预报发布于31分钟前的15:01 UTC
静风
温度 6°C
湿度 100%
气压 1012 hPa
能見度: 3.2公里
多云层高于300英尺
多云层高于6500英尺
多云层高于11000英尺
轻雾

METAR: PAFA 161501Z 00000KT 2SM BR BKN003 BKN065 BKN110 06/06 A2987 RMK AO2 VIS N-NE S-W-NW 1 T00610056

时间: 07:32 (15:32 UTC)

预报

该预报发布于39分钟前的14:53 UTC
预报有效从16日的 15点(UTC)到 17日的 18点(UTC)
风速3节,风向多变
能見度: 0.4公里
层高于200英尺
从 16日的 1700点(UTC)
风速5节,风向西转西南
能見度: 3.2公里
散云层高于500英尺
多云层高于4000英尺
碎片雾, 轻雾
从 16日的 1800点(UTC)
风速7节,风向西转西南
能見度: 10公里
散云层高于2500英尺
多云层高于7000英尺
从 16日的 2200点(UTC)
风速10节,风向西,有时为15节阵风
能見度: 10公里
多云层高于5000英尺
从 17日的 0400点(UTC)
风速8节,风向西转西南
能見度: 10公里
多云层高于4000英尺
附近有阵雨

TAF: PAFA 161453Z 1615/1718 VRB03KT 1/4SM FG VV002 FM161700 24005KT 2SM BCFG BR SCT005 BKN040 FM161800 24007KT P6SM SCT025 BKN070 FM162200 26010G15KT P6SM BKN050 FM170400 25008KT P6SM VCSH BKN040

超过4000个机场的气象观测和天气预报(METAR&TAF报告)。

可查询的气象台以黄色和红色小点在地图上表示。

将鼠标移到小点上方,可查看气象台名称。

然后点击查看天气观测和预报。

如需切换地图:点击带黑十字的绿色按钮放大地图;点击带横线的绿色按钮缩小地图;或者点击绿色箭头查看邻近地区的地图。


METAR-TAF: